createdAt,value
2022-12-03T00:00:01.135Z,58.60
2022-12-03T00:02:32.357Z,58.80
2022-12-03T00:04:59.750Z,58.88
2022-12-03T00:07:27.041Z,58.84
2022-12-03T00:09:54.368Z,58.85
2022-12-03T00:12:21.377Z,58.99
2022-12-03T00:14:48.696Z,59.37
2022-12-03T00:17:16.061Z,59.46
2022-12-03T00:19:43.246Z,59.37
2022-12-03T00:22:12.639Z,59.62
2022-12-03T00:24:40.080Z,58.87
2022-12-03T00:27:07.121Z,59.43
2022-12-03T00:29:34.188Z,59.09
2022-12-03T00:32:01.393Z,59.30
2022-12-03T00:34:28.494Z,58.96
2022-12-03T00:36:55.515Z,59.64
2022-12-03T00:39:22.686Z,59.86
2022-12-03T00:41:49.793Z,59.29
2022-12-03T00:44:18.313Z,60.01
2022-12-03T00:46:45.427Z,59.72
2022-12-03T00:49:12.681Z,60.19
2022-12-03T00:51:39.788Z,60.29
2022-12-03T00:54:06.923Z,59.62
2022-12-03T00:56:35.290Z,60.00
2022-12-03T00:59:02.351Z,60.41
2022-12-03T01:01:29.481Z,60.69
2022-12-03T01:03:56.749Z,60.08
2022-12-03T01:06:23.856Z,60.02
2022-12-03T01:08:50.939Z,60.21
2022-12-03T01:11:36.522Z,60.27
2022-12-03T01:14:04.172Z,61.10
2022-12-03T01:16:31.294Z,60.03
2022-12-03T01:18:59.135Z,59.87
2022-12-03T01:21:26.215Z,60.92
2022-12-03T01:23:53.297Z,61.03
2022-12-03T01:26:20.562Z,61.22
2022-12-03T01:28:47.641Z,61.29
2022-12-03T01:31:33.829Z,61.03
2022-12-03T01:34:01.207Z,60.93
2022-12-03T01:36:29.353Z,61.77
2022-12-03T01:38:56.448Z,61.82
2022-12-03T01:41:25.392Z,61.91
2022-12-03T01:43:54.404Z,61.46
2022-12-03T01:46:24.129Z,61.71
2022-12-03T01:48:53.952Z,61.15
2022-12-03T01:51:21.378Z,61.34
2022-12-03T01:53:49.033Z,61.06
2022-12-03T01:56:17.402Z,60.91
2022-12-03T01:58:45.924Z,60.72
2022-12-03T02:01:15.894Z,60.46
2022-12-03T02:03:44.413Z,60.90
2022-12-03T02:06:20.624Z,60.46
2022-12-03T02:08:48.618Z,60.52
2022-12-03T02:11:25.564Z,60.34
2022-12-03T02:14:16.847Z,60.58
2022-12-03T02:16:44.698Z,61.71
2022-12-03T02:19:41.157Z,61.79
2022-12-03T02:22:20.457Z,61.32
2022-12-03T02:25:03.910Z,61.63
2022-12-03T02:27:30.996Z,61.27
2022-12-03T02:29:58.281Z,61.14
2022-12-03T02:32:25.919Z,62.07
2022-12-03T02:34:53.444Z,62.35
2022-12-03T02:37:29.797Z,62.15
2022-12-03T02:40:01.701Z,62.21
2022-12-03T02:42:36.897Z,62.24
2022-12-03T02:45:11.588Z,62.90
2022-12-03T02:47:45.972Z,62.15
2022-12-03T02:50:17.629Z,62.14
2022-12-03T02:52:46.664Z,61.81
2022-12-03T02:55:15.804Z,62.60
2022-12-03T02:57:46.441Z,62.51
2022-12-03T03:00:14.341Z,62.94
2022-12-03T03:02:42.794Z,62.63
2022-12-03T03:05:25.660Z,62.95
2022-12-03T03:07:52.815Z,62.69
2022-12-03T03:10:23.144Z,62.86
2022-12-03T03:12:52.871Z,62.57
2022-12-03T03:15:20.971Z,62.10
2022-12-03T03:17:50.037Z,62.27
2022-12-03T03:20:17.718Z,62.68
2022-12-03T03:22:44.897Z,62.48
2022-12-03T03:25:18.929Z,63.33
2022-12-03T03:27:46.936Z,62.92
2022-12-03T03:30:14.832Z,63.18
2022-12-03T03:32:43.079Z,62.69
2022-12-03T03:35:11.619Z,62.79
2022-12-03T03:37:39.235Z,62.65
2022-12-03T03:40:07.862Z,63.05
2022-12-03T03:42:35.682Z,62.81
2022-12-03T03:45:02.867Z,62.94
2022-12-03T03:47:30.807Z,62.58
2022-12-03T03:49:57.950Z,63.36
2022-12-03T03:52:25.331Z,63.29
2022-12-03T03:54:52.793Z,62.86
2022-12-03T03:57:20.342Z,62.80
2022-12-03T03:59:47.461Z,62.82
2022-12-03T04:02:22.774Z,63.21
2022-12-03T04:04:52.220Z,63.14
2022-12-03T04:07:19.807Z,63.28
2022-12-03T04:09:47.000Z,63.83
2022-12-03T04:12:32.765Z,64.09
2022-12-03T04:15:01.269Z,63.79
2022-12-03T04:17:28.625Z,64.26
2022-12-03T04:19:56.039Z,64.58
2022-12-03T04:22:41.360Z,64.97
2022-12-03T04:25:27.906Z,65.11
2022-12-03T04:28:13.488Z,64.81
2022-12-03T04:30:40.630Z,64.77
2022-12-03T04:33:26.175Z,64.04
2022-12-03T04:35:53.438Z,64.00
2022-12-03T04:38:20.530Z,64.47
2022-12-03T04:41:04.393Z,64.19
2022-12-03T04:43:33.866Z,64.02
2022-12-03T04:46:01.704Z,64.31
2022-12-03T04:48:30.200Z,63.69
2022-12-03T04:50:57.454Z,62.87
2022-12-03T04:53:24.661Z,63.71
2022-12-03T04:55:52.944Z,63.28
2022-12-03T04:58:20.116Z,63.07
2022-12-03T05:00:47.386Z,63.13
2022-12-03T05:03:14.555Z,62.91
2022-12-03T05:05:42.057Z,62.06
2022-12-03T05:08:09.420Z,62.41
2022-12-03T05:10:36.500Z,62.45
2022-12-03T05:13:03.703Z,62.49
2022-12-03T05:15:30.780Z,62.68
2022-12-03T05:17:57.913Z,62.56
2022-12-03T05:20:46.979Z,62.72
2022-12-03T05:23:18.573Z,62.83
2022-12-03T05:25:45.788Z,62.76
2022-12-03T05:28:13.203Z,63.19
2022-12-03T05:30:40.552Z,62.68
2022-12-03T05:33:08.054Z,62.51
2022-12-03T05:35:35.320Z,62.64
2022-12-03T05:38:02.353Z,62.59
2022-12-03T05:40:29.548Z,62.29
2022-12-03T05:43:01.444Z,62.30
2022-12-03T05:45:31.480Z,62.79
2022-12-03T05:48:00.521Z,62.02
2022-12-03T05:50:30.330Z,62.35
2022-12-03T05:52:58.061Z,62.39
2022-12-03T05:55:26.128Z,62.37
2022-12-03T05:57:53.375Z,63.14
2022-12-03T06:00:26.350Z,62.60
2022-12-03T06:02:54.184Z,62.36
2022-12-03T06:05:22.500Z,62.93
2022-12-03T06:07:51.271Z,63.10
2022-12-03T06:10:23.529Z,63.14
2022-12-03T06:12:51.290Z,62.99
2022-12-03T06:15:19.139Z,63.27
2022-12-03T06:17:46.768Z,62.83
2022-12-03T06:20:17.077Z,62.57
2022-12-03T06:22:44.275Z,61.70
2022-12-03T06:25:12.196Z,62.24
2022-12-03T06:27:41.295Z,61.70
2022-12-03T06:30:13.143Z,62.01
2022-12-03T06:32:41.709Z,62.45
2022-12-03T06:35:09.274Z,61.93
2022-12-03T06:37:36.346Z,61.68
2022-12-03T06:40:04.559Z,62.33
2022-12-03T06:42:31.650Z,61.78
2022-12-03T06:44:58.803Z,61.68
2022-12-03T06:47:26.073Z,61.48
2022-12-03T06:49:53.190Z,61.64
2022-12-03T06:52:20.855Z,61.74
2022-12-03T06:54:47.917Z,61.96
2022-12-03T06:57:15.751Z,62.03
2022-12-03T06:59:42.932Z,62.32
2022-12-03T07:02:11.650Z,61.53
2022-12-03T07:04:42.138Z,61.76
2022-12-03T07:07:13.114Z,62.49
2022-12-03T07:09:40.330Z,62.23
2022-12-03T07:12:07.487Z,61.26
2022-12-03T07:14:34.688Z,61.42
2022-12-03T07:17:02.328Z,61.27
2022-12-03T07:19:32.723Z,60.94
2022-12-03T07:22:01.036Z,60.93
2022-12-03T07:24:28.813Z,61.16
2022-12-03T07:26:56.472Z,60.98
2022-12-03T07:29:24.048Z,60.54
2022-12-03T07:31:51.677Z,60.58
2022-12-03T07:34:18.968Z,60.64
2022-12-03T07:36:46.309Z,61.09
2022-12-03T07:39:14.047Z,61.01
2022-12-03T07:41:41.136Z,60.99
2022-12-03T07:44:14.248Z,60.23
2022-12-03T07:46:42.530Z,60.67
2022-12-03T07:49:09.963Z,60.87
2022-12-03T07:51:37.263Z,60.16
2022-12-03T07:54:05.165Z,59.72
2022-12-03T07:56:32.281Z,59.73
2022-12-03T07:59:00.709Z,59.84
2022-12-03T08:01:27.865Z,59.13
2022-12-03T08:03:55.328Z,59.62
2022-12-03T08:06:23.228Z,59.91
2022-12-03T08:08:50.484Z,59.02
2022-12-03T08:11:18.011Z,58.65
2022-12-03T08:13:45.039Z,58.23
2022-12-03T08:16:18.336Z,58.08
2022-12-03T08:18:47.122Z,57.21
2022-12-03T08:21:17.209Z,58.18
2022-12-03T08:23:44.714Z,57.40
2022-12-03T08:26:25.362Z,57.61
2022-12-03T08:28:53.352Z,58.03
2022-12-03T08:31:32.850Z,57.45
2022-12-03T08:34:19.701Z,58.42
2022-12-03T08:36:48.257Z,57.82
2022-12-03T08:39:34.000Z,57.96
2022-12-03T08:42:30.761Z,57.04
2022-12-03T08:45:32.443Z,56.69
2022-12-03T08:48:07.632Z,56.84
2022-12-03T08:50:41.624Z,56.68
2022-12-03T08:53:29.418Z,57.48
2022-12-03T08:56:05.082Z,56.07
2022-12-03T08:58:43.813Z,55.96
2022-12-03T09:01:10.962Z,56.25
2022-12-03T09:03:42.875Z,56.45
2022-12-03T09:06:11.610Z,55.98
2022-12-03T09:08:39.070Z,56.18
2022-12-03T09:11:06.340Z,55.05
2022-12-03T09:13:33.429Z,55.36
2022-12-03T09:16:00.525Z,55.68
2022-12-03T09:18:27.851Z,55.09
2022-12-03T09:20:56.568Z,54.98
2022-12-03T09:23:24.010Z,55.12
2022-12-03T09:25:51.062Z,55.21
2022-12-03T09:28:18.272Z,55.62
2022-12-03T09:30:45.555Z,55.61
2022-12-03T09:33:14.897Z,55.41
2022-12-03T09:35:42.080Z,54.65
2022-12-03T09:38:09.386Z,54.62
2022-12-03T09:40:36.722Z,55.21
2022-12-03T09:43:04.734Z,55.43
2022-12-03T09:45:31.928Z,54.98
2022-12-03T09:48:01.639Z,54.98
2022-12-03T09:50:29.463Z,55.37
2022-12-03T09:53:00.201Z,55.08
2022-12-03T09:55:28.706Z,55.11
2022-12-03T09:57:58.131Z,54.62
2022-12-03T10:00:28.443Z,54.24
2022-12-03T10:02:59.694Z,54.81
2022-12-03T10:05:28.651Z,54.25
2022-12-03T10:08:00.529Z,54.14
2022-12-03T10:10:27.989Z,53.68
2022-12-03T10:12:55.274Z,53.25
2022-12-03T10:15:23.731Z,53.16
2022-12-03T10:17:56.465Z,51.80
2022-12-03T10:20:26.137Z,53.04
2022-12-03T10:22:53.402Z,51.35
2022-12-03T10:25:22.903Z,51.92
2022-12-03T10:28:07.113Z,51.00
2022-12-03T10:30:34.535Z,51.25
2022-12-03T10:33:17.363Z,52.12
2022-12-03T10:35:46.233Z,50.62
2022-12-03T10:38:25.339Z,50.23
2022-12-03T10:40:52.882Z,51.33
2022-12-03T10:43:19.919Z,49.26
2022-12-03T10:46:09.752Z,49.20
2022-12-03T10:48:36.988Z,50.69
2022-12-03T10:51:17.087Z,49.74
2022-12-03T10:53:44.618Z,50.61
2022-12-03T10:56:24.575Z,49.57
2022-12-03T10:58:52.129Z,50.72
2022-12-03T11:01:25.602Z,50.30
2022-12-03T11:03:54.569Z,50.29
2022-12-03T11:06:23.635Z,50.44
2022-12-03T11:08:58.540Z,50.06
2022-12-03T11:11:31.297Z,50.63
2022-12-03T11:14:02.862Z,50.72
2022-12-03T11:16:42.124Z,50.83
2022-12-03T11:19:18.431Z,51.43
2022-12-03T11:22:05.206Z,51.27
2022-12-03T11:24:34.927Z,50.91
2022-12-03T11:27:02.032Z,51.65
2022-12-03T11:30:08.214Z,51.25
2022-12-03T11:32:38.473Z,51.84
2022-12-03T11:35:25.870Z,52.09
2022-12-03T11:37:53.199Z,51.82
2022-12-03T11:40:20.338Z,52.32
2022-12-03T11:42:48.909Z,51.98
2022-12-03T11:45:33.395Z,52.14
2022-12-03T11:48:06.045Z,51.86
2022-12-03T11:50:41.090Z,52.44
2022-12-03T11:53:08.082Z,52.18
2022-12-03T11:55:38.987Z,51.41
2022-12-03T11:58:17.207Z,51.66
2022-12-03T12:00:53.052Z,51.58
2022-12-03T12:03:34.844Z,51.99
2022-12-03T12:06:13.260Z,51.26
2022-12-03T12:08:52.623Z,51.49
2022-12-03T12:11:31.838Z,51.26
2022-12-03T12:14:13.263Z,51.93
2022-12-03T12:16:42.820Z,52.06
2022-12-03T12:19:38.444Z,51.74
2022-12-03T12:22:19.993Z,51.90
2022-12-03T12:24:51.873Z,51.76
2022-12-03T12:27:29.673Z,51.33
2022-12-03T12:29:59.065Z,51.47
2022-12-03T12:32:35.502Z,51.59
2022-12-03T12:35:24.653Z,51.44
2022-12-03T12:38:00.896Z,52.01
2022-12-03T12:40:31.364Z,51.68
2022-12-03T12:43:08.208Z,51.87
2022-12-03T12:45:39.988Z,51.60
2022-12-03T12:48:12.397Z,52.16
2022-12-03T12:50:40.738Z,51.55
2022-12-03T12:53:11.420Z,51.98
2022-12-03T12:55:39.834Z,51.64
2022-12-03T12:58:19.080Z,51.45
2022-12-03T13:00:55.020Z,52.05
2022-12-03T13:03:26.041Z,51.42
2022-12-03T13:05:56.430Z,51.39
2022-12-03T13:08:34.098Z,50.91
2022-12-03T13:11:03.097Z,50.92
2022-12-03T13:13:31.931Z,50.32
2022-12-03T13:16:07.377Z,50.72
2022-12-03T13:18:54.929Z,50.23
2022-12-03T13:21:44.403Z,50.62
2022-12-03T13:24:32.853Z,50.08
2022-12-03T13:27:05.320Z,50.99
2022-12-03T13:29:32.571Z,51.68
2022-12-03T13:32:20.266Z,50.98
2022-12-03T13:34:50.581Z,50.83
2022-12-03T13:37:23.880Z,50.97
2022-12-03T13:39:56.883Z,51.44
2022-12-03T13:42:42.049Z,51.94
2022-12-03T13:45:18.128Z,51.52
2022-12-03T13:47:50.569Z,51.73
2022-12-03T13:50:33.509Z,52.40
2022-12-03T13:53:03.402Z,52.53
2022-12-03T13:55:32.157Z,52.19
2022-12-03T13:57:59.478Z,52.16
2022-12-03T14:00:26.807Z,52.10
2022-12-03T14:02:54.855Z,51.77
2022-12-03T14:05:22.195Z,52.41
2022-12-03T14:07:49.393Z,52.20
2022-12-03T14:10:17.007Z,51.97
2022-12-03T14:12:44.347Z,52.19
2022-12-03T14:15:11.536Z,51.56
2022-12-03T14:17:39.214Z,51.69
2022-12-03T14:20:08.295Z,52.18
2022-12-03T14:22:38.182Z,52.54
2022-12-03T14:25:07.168Z,52.03
2022-12-03T14:27:34.577Z,52.68
2022-12-03T14:30:01.730Z,52.16
2022-12-03T14:32:29.390Z,52.23
2022-12-03T14:34:57.067Z,52.48
2022-12-03T14:37:24.092Z,52.48
2022-12-03T14:39:51.316Z,52.04
2022-12-03T14:42:18.570Z,51.89
2022-12-03T14:44:48.309Z,52.42
2022-12-03T14:47:20.264Z,52.70
2022-12-03T14:49:47.734Z,52.46
2022-12-03T14:52:15.257Z,52.58
2022-12-03T14:54:43.007Z,52.11
2022-12-03T14:57:12.794Z,52.24
2022-12-03T14:59:41.638Z,51.55
2022-12-03T15:02:10.187Z,51.59
2022-12-03T15:04:38.262Z,51.56
2022-12-03T15:07:07.143Z,50.96
2022-12-03T15:09:35.029Z,51.40
2022-12-03T15:12:03.534Z,50.34
2022-12-03T15:14:32.675Z,50.00
2022-12-03T15:17:02.005Z,50.59
2022-12-03T15:19:30.421Z,50.67
2022-12-03T15:22:00.302Z,50.17
2022-12-03T15:24:27.523Z,50.22
2022-12-03T15:26:55.952Z,49.75
2022-12-03T15:29:23.727Z,49.84
2022-12-03T15:31:50.953Z,49.63
2022-12-03T15:34:22.525Z,50.00
2022-12-03T15:36:51.288Z,49.62
2022-12-03T15:39:18.655Z,49.15
2022-12-03T15:41:45.823Z,49.10
2022-12-03T15:44:12.862Z,49.95
2022-12-03T15:46:40.176Z,49.34
2022-12-03T15:49:07.414Z,49.42
2022-12-03T15:51:34.533Z,49.28
2022-12-03T15:54:01.717Z,49.52
2022-12-03T15:56:28.974Z,49.06
2022-12-03T15:58:56.058Z,49.82
2022-12-03T16:01:23.316Z,49.36
2022-12-03T16:03:50.494Z,49.13
2022-12-03T16:06:18.310Z,49.52
2022-12-03T16:08:46.388Z,49.37
2022-12-03T16:11:13.516Z,50.32
2022-12-03T16:13:40.786Z,50.33
2022-12-03T16:16:08.716Z,51.06
2022-12-03T16:18:35.843Z,50.25
2022-12-03T16:21:03.353Z,50.50
2022-12-03T16:23:30.453Z,51.08
2022-12-03T16:25:58.270Z,52.11
2022-12-03T16:28:26.550Z,51.93
2022-12-03T16:30:54.076Z,51.57
2022-12-03T16:33:27.076Z,51.87
2022-12-03T16:35:54.983Z,51.17
2022-12-03T16:38:22.058Z,52.19
2022-12-03T16:40:49.516Z,51.90
2022-12-03T16:43:16.745Z,52.32
2022-12-03T16:46:03.081Z,52.20
2022-12-03T16:48:30.487Z,51.91
2022-12-03T16:50:57.647Z,51.65
2022-12-03T16:53:24.831Z,52.50
2022-12-03T16:55:51.893Z,52.28
2022-12-03T16:58:21.586Z,52.54
2022-12-03T17:00:49.827Z,52.02
2022-12-03T17:03:18.068Z,52.89
2022-12-03T17:05:46.210Z,52.59
2022-12-03T17:08:14.276Z,53.11
2022-12-03T17:10:41.761Z,52.67
2022-12-03T17:13:10.558Z,52.71
2022-12-03T17:15:39.081Z,52.79
2022-12-03T17:18:07.558Z,52.22
2022-12-03T17:20:35.859Z,52.05
2022-12-03T17:23:03.897Z,52.64
2022-12-03T17:25:31.148Z,51.49
2022-12-03T17:27:58.455Z,52.02
2022-12-03T17:30:25.748Z,51.83
2022-12-03T17:32:53.187Z,52.24
2022-12-03T17:35:20.434Z,51.30
2022-12-03T17:37:47.710Z,51.05
2022-12-03T17:40:17.380Z,51.23
2022-12-03T17:42:45.378Z,51.64
2022-12-03T17:45:13.466Z,51.23
2022-12-03T17:47:40.949Z,51.24
2022-12-03T17:50:08.759Z,51.13
2022-12-03T17:52:35.867Z,50.95
2022-12-03T17:55:14.216Z,51.42
2022-12-03T17:57:45.174Z,50.78
2022-12-03T18:00:12.812Z,50.95
2022-12-03T18:02:40.692Z,50.92
2022-12-03T18:05:08.271Z,50.04
2022-12-03T18:07:35.734Z,49.83
2022-12-03T18:10:03.081Z,50.19
2022-12-03T18:12:30.955Z,50.20
2022-12-03T18:14:58.310Z,50.07
2022-12-03T18:17:25.506Z,50.56
2022-12-03T18:19:53.084Z,49.89
2022-12-03T18:22:20.659Z,50.21
2022-12-03T18:24:51.514Z,49.71
2022-12-03T18:27:20.925Z,50.47
2022-12-03T18:29:48.395Z,50.04
2022-12-03T18:32:28.300Z,50.52
2022-12-03T18:34:57.342Z,49.67
2022-12-03T18:37:29.016Z,49.07
2022-12-03T18:39:57.460Z,50.07
2022-12-03T18:42:25.236Z,49.57
2022-12-03T18:44:54.926Z,49.60
2022-12-03T18:47:25.043Z,49.27
2022-12-03T18:49:52.856Z,48.42
2022-12-03T18:52:22.192Z,48.79
2022-12-03T18:54:49.902Z,48.47
2022-12-03T18:57:17.830Z,48.78
2022-12-03T18:59:45.255Z,48.89
2022-12-03T19:02:32.480Z,48.92
2022-12-03T19:05:04.500Z,49.30
2022-12-03T19:07:31.595Z,48.66
2022-12-03T19:09:58.922Z,49.08
2022-12-03T19:12:26.232Z,48.20
2022-12-03T19:14:53.306Z,48.31
2022-12-03T19:17:21.603Z,48.81
2022-12-03T19:19:48.828Z,47.12
2022-12-03T19:22:15.934Z,47.40
2022-12-03T19:24:43.831Z,47.77
2022-12-03T19:27:11.012Z,47.42
2022-12-03T19:29:38.514Z,48.08
2022-12-03T19:32:05.780Z,47.68
2022-12-03T19:34:33.293Z,47.40
2022-12-03T19:37:00.512Z,48.20
2022-12-03T19:39:27.610Z,47.58
2022-12-03T19:41:54.710Z,47.31
2022-12-03T19:44:22.402Z,48.40
2022-12-03T19:46:51.288Z,47.61
2022-12-03T19:49:21.053Z,48.46
2022-12-03T19:51:49.732Z,47.51
2022-12-03T19:54:19.248Z,48.44
2022-12-03T19:56:48.351Z,48.19
2022-12-03T19:59:17.546Z,46.58
2022-12-03T20:01:44.992Z,47.46
2022-12-03T20:04:13.219Z,47.71
2022-12-03T20:06:41.073Z,47.32
2022-12-03T20:09:12.126Z,47.73
2022-12-03T20:11:41.617Z,48.52
2022-12-03T20:14:12.921Z,47.53
2022-12-03T20:16:40.665Z,47.93
2022-12-03T20:19:10.806Z,47.54
2022-12-03T20:21:39.139Z,47.42
2022-12-03T20:24:07.321Z,48.47
2022-12-03T20:26:34.863Z,47.29
2022-12-03T20:29:02.297Z,47.80
2022-12-03T20:31:31.757Z,47.38
2022-12-03T20:34:02.301Z,46.77
2022-12-03T20:36:31.771Z,47.29
2022-12-03T20:39:02.323Z,47.87
2022-12-03T20:41:29.882Z,46.65
2022-12-03T20:43:57.275Z,46.55
2022-12-03T20:46:29.355Z,46.73
2022-12-03T20:48:57.810Z,46.48
2022-12-03T20:51:28.216Z,47.15
2022-12-03T20:53:56.316Z,46.96
2022-12-03T20:56:31.424Z,46.54
2022-12-03T20:59:08.343Z,46.23
2022-12-03T21:01:36.515Z,47.02
2022-12-03T21:04:05.384Z,46.04
2022-12-03T21:06:35.036Z,46.94
2022-12-03T21:09:04.637Z,46.53
2022-12-03T21:11:34.044Z,46.44
2022-12-03T21:14:01.168Z,46.56
2022-12-03T21:17:06.019Z,46.75
2022-12-03T21:19:20.810Z,47.64
2022-12-03T21:21:48.656Z,47.38
2022-12-03T21:24:15.765Z,46.87
2022-12-03T21:26:43.029Z,47.02
2022-12-03T21:29:10.321Z,47.28
2022-12-03T21:31:39.914Z,46.69
2022-12-03T21:34:08.901Z,47.32
2022-12-03T21:36:36.363Z,47.47
2022-12-03T21:39:05.269Z,47.08
2022-12-03T21:41:32.682Z,47.40
2022-12-03T21:43:59.811Z,47.65
2022-12-03T21:47:12.751Z,48.14
2022-12-03T21:49:14.688Z,48.17
2022-12-03T21:51:41.895Z,47.78
2022-12-03T21:54:08.964Z,46.99
2022-12-03T21:56:36.572Z,47.08
2022-12-03T21:59:04.086Z,47.81
2022-12-03T22:01:31.360Z,47.39
2022-12-03T22:03:59.148Z,47.36
2022-12-03T22:06:26.290Z,47.36
2022-12-03T22:08:53.504Z,48.01
2022-12-03T22:11:23.859Z,47.97
2022-12-03T22:13:51.608Z,47.74
2022-12-03T22:16:20.755Z,47.07
2022-12-03T22:18:48.317Z,47.55
2022-12-03T22:21:18.354Z,47.17
2022-12-03T22:23:46.801Z,47.70
2022-12-03T22:26:16.532Z,48.03
2022-12-03T22:28:46.413Z,48.28
2022-12-03T22:31:14.440Z,46.89
2022-12-03T22:33:41.974Z,47.38
2022-12-03T22:36:18.066Z,46.80
2022-12-03T22:38:48.377Z,46.96
2022-12-03T22:41:16.652Z,46.99
2022-12-03T22:43:44.796Z,47.49
2022-12-03T22:46:12.984Z,47.59
2022-12-03T22:48:41.934Z,47.81
2022-12-03T22:51:18.686Z,47.35
2022-12-03T22:53:46.044Z,47.75
2022-12-03T22:56:13.885Z,47.47
2022-12-03T22:58:41.419Z,47.54
2022-12-03T23:01:09.020Z,48.14
2022-12-03T23:03:36.925Z,47.84
2022-12-03T23:06:12.275Z,47.71
2022-12-03T23:08:39.783Z,47.87
2022-12-03T23:11:07.613Z,47.87
2022-12-03T23:13:35.897Z,47.98
2022-12-03T23:16:03.781Z,48.35
2022-12-03T23:18:31.201Z,48.62
2022-12-03T23:20:59.043Z,48.73
2022-12-03T23:23:28.264Z,48.62
2022-12-03T23:26:07.492Z,48.58
2022-12-03T23:28:39.093Z,48.49
2022-12-03T23:31:14.275Z,48.84
2022-12-03T23:33:41.225Z,48.91
2022-12-03T23:36:08.684Z,48.48
2022-12-03T23:38:36.085Z,49.40
2022-12-03T23:41:12.204Z,48.53
2022-12-03T23:43:40.297Z,48.67
2022-12-03T23:46:12.949Z,48.82
2022-12-03T23:48:40.455Z,48.98
2022-12-03T23:51:10.587Z,48.46
2022-12-03T23:53:38.453Z,48.68
2022-12-03T23:56:17.997Z,49.13
2022-12-03T23:58:46.366Z,48.65
